sensor_id;sensor_type;location;lat;lon;timestamp;P1;durP1;ratioP1;P2;durP2;ratioP2
13855;SDS011;6998;53.608;9.958;2023-05-14T00:00:21;22.02;;;15.23;;
13855;SDS011;6998;53.608;9.958;2023-05-14T00:02:48;18.40;;;13.93;;
13855;SDS011;6998;53.608;9.958;2023-05-14T00:05:16;16.23;;;12.40;;
13855;SDS011;6998;53.608;9.958;2023-05-14T00:07:43;13.98;;;11.68;;
13855;SDS011;6998;53.608;9.958;2023-05-14T00:10:09;14.40;;;11.50;;
13855;SDS011;6998;53.608;9.958;2023-05-14T00:12:36;13.68;;;11.55;;
13855;SDS011;6998;53.608;9.958;2023-05-14T00:15:03;14.20;;;11.30;;
13855;SDS011;6998;53.608;9.958;2023-05-14T00:17:30;13.18;;;10.65;;
13855;SDS011;6998;53.608;9.958;2023-05-14T00:19:57;12.15;;;10.15;;
13855;SDS011;6998;53.608;9.958;2023-05-14T00:22:25;12.73;;;10.95;;
13855;SDS011;6998;53.608;9.958;2023-05-14T00:24:51;14.95;;;11.23;;
13855;SDS011;6998;53.608;9.958;2023-05-14T00:27:18;14.35;;;11.40;;
13855;SDS011;6998;53.608;9.958;2023-05-14T00:29:45;14.98;;;11.20;;
13855;SDS011;6998;53.608;9.958;2023-05-14T00:32:11;12.40;;;11.07;;
13855;SDS011;6998;53.608;9.958;2023-05-14T00:34:38;13.73;;;12.18;;
13855;SDS011;6998;53.608;9.958;2023-05-14T00:37:05;12.85;;;11.55;;
13855;SDS011;6998;53.608;9.958;2023-05-14T00:39:33;12.68;;;11.25;;
13855;SDS011;6998;53.608;9.958;2023-05-14T00:41:59;17.45;;;12.77;;
13855;SDS011;6998;53.608;9.958;2023-05-14T00:44:26;13.57;;;11.98;;
13855;SDS011;6998;53.608;9.958;2023-05-14T00:46:53;13.25;;;11.98;;
13855;SDS011;6998;53.608;9.958;2023-05-14T00:49:20;14.38;;;11.60;;
13855;SDS011;6998;53.608;9.958;2023-05-14T00:51:47;14.02;;;12.15;;
13855;SDS011;6998;53.608;9.958;2023-05-14T00:54:13;13.07;;;11.43;;
13855;SDS011;6998;53.608;9.958;2023-05-14T00:56:42;13.73;;;12.32;;
13855;SDS011;6998;53.608;9.958;2023-05-14T00:59:10;15.02;;;12.00;;
13855;SDS011;6998;53.608;9.958;2023-05-14T01:01:37;14.73;;;11.65;;
13855;SDS011;6998;53.608;9.958;2023-05-14T01:04:07;14.18;;;11.70;;
13855;SDS011;6998;53.608;9.958;2023-05-14T01:06:36;14.07;;;12.00;;
13855;SDS011;6998;53.608;9.958;2023-05-14T01:09:12;12.57;;;11.38;;
13855;SDS011;6998;53.608;9.958;2023-05-14T01:11:46;13.32;;;12.02;;
13855;SDS011;6998;53.608;9.958;2023-05-14T01:14:21;12.70;;;11.32;;
13855;SDS011;6998;53.608;9.958;2023-05-14T01:16:54;11.32;;;10.25;;
13855;SDS011;6998;53.608;9.958;2023-05-14T01:19:26;12.55;;;11.07;;
13855;SDS011;6998;53.608;9.958;2023-05-14T01:21:59;12.52;;;11.23;;
13855;SDS011;6998;53.608;9.958;2023-05-14T01:24:26;12.23;;;11.07;;
13855;SDS011;6998;53.608;9.958;2023-05-14T01:26:53;12.80;;;11.50;;
13855;SDS011;6998;53.608;9.958;2023-05-14T01:29:26;15.50;;;11.40;;
13855;SDS011;6998;53.608;9.958;2023-05-14T01:31:55;13.63;;;11.05;;
13855;SDS011;6998;53.608;9.958;2023-05-14T01:34:24;12.98;;;11.73;;
13855;SDS011;6998;53.608;9.958;2023-05-14T01:36:53;13.65;;;11.95;;
13855;SDS011;6998;53.608;9.958;2023-05-14T01:39:23;12.88;;;11.38;;
13855;SDS011;6998;53.608;9.958;2023-05-14T01:41:51;13.05;;;11.55;;
13855;SDS011;6998;53.608;9.958;2023-05-14T01:44:19;12.73;;;10.88;;
13855;SDS011;6998;53.608;9.958;2023-05-14T01:46:46;13.65;;;11.20;;
13855;SDS011;6998;53.608;9.958;2023-05-14T01:49:13;11.77;;;10.48;;
13855;SDS011;6998;53.608;9.958;2023-05-14T01:51:42;11.43;;;10.27;;
13855;SDS011;6998;53.608;9.958;2023-05-14T01:54:08;12.23;;;11.02;;
13855;SDS011;6998;53.608;9.958;2023-05-14T01:56:36;12.40;;;11.18;;
13855;SDS011;6998;53.608;9.958;2023-05-14T01:59:03;13.18;;;11.77;;
13855;SDS011;6998;53.608;9.958;2023-05-14T02:01:30;16.33;;;12.77;;
13855;SDS011;6998;53.608;9.958;2023-05-14T02:03:57;17.25;;;12.88;;
13855;SDS011;6998;53.608;9.958;2023-05-14T02:06:25;18.75;;;13.93;;
13855;SDS011;6998;53.608;9.958;2023-05-14T02:08:51;17.75;;;14.15;;
13855;SDS011;6998;53.608;9.958;2023-05-14T02:11:18;17.63;;;12.98;;
13855;SDS011;6998;53.608;9.958;2023-05-14T02:13:47;16.10;;;12.02;;
13855;SDS011;6998;53.608;9.958;2023-05-14T02:16:13;15.38;;;11.00;;
13855;SDS011;6998;53.608;9.958;2023-05-14T02:18:40;13.65;;;11.75;;
13855;SDS011;6998;53.608;9.958;2023-05-14T02:21:07;12.40;;;11.13;;
13855;SDS011;6998;53.608;9.958;2023-05-14T02:23:33;12.27;;;10.98;;
13855;SDS011;6998;53.608;9.958;2023-05-14T02:26:00;13.02;;;11.20;;
13855;SDS011;6998;53.608;9.958;2023-05-14T02:28:27;11.63;;;10.45;;
13855;SDS011;6998;53.608;9.958;2023-05-14T02:30:58;15.45;;;12.20;;
13855;SDS011;6998;53.608;9.958;2023-05-14T02:33:25;12.05;;;10.23;;
13855;SDS011;6998;53.608;9.958;2023-05-14T02:35:53;12.30;;;10.98;;
13855;SDS011;6998;53.608;9.958;2023-05-14T02:38:19;11.73;;;10.52;;
13855;SDS011;6998;53.608;9.958;2023-05-14T02:40:46;12.52;;;10.27;;
13855;SDS011;6998;53.608;9.958;2023-05-14T02:43:13;11.52;;;10.32;;
13855;SDS011;6998;53.608;9.958;2023-05-14T02:45:39;11.88;;;10.60;;
13855;SDS011;6998;53.608;9.958;2023-05-14T02:48:07;12.70;;;10.60;;
13855;SDS011;6998;53.608;9.958;2023-05-14T02:50:34;11.48;;;10.35;;
13855;SDS011;6998;53.608;9.958;2023-05-14T02:53:00;11.45;;;10.30;;
13855;SDS011;6998;53.608;9.958;2023-05-14T02:55:27;10.32;;;9.30;;
13855;SDS011;6998;53.608;9.958;2023-05-14T02:57:54;10.13;;;8.90;;
13855;SDS011;6998;53.608;9.958;2023-05-14T03:00:20;9.50;;;8.52;;
13855;SDS011;6998;53.608;9.958;2023-05-14T03:02:47;9.63;;;8.68;;
13855;SDS011;6998;53.608;9.958;2023-05-14T03:05:15;12.10;;;9.23;;
13855;SDS011;6998;53.608;9.958;2023-05-14T03:07:42;10.25;;;9.30;;
13855;SDS011;6998;53.608;9.958;2023-05-14T03:10:09;8.88;;;8.07;;
13855;SDS011;6998;53.608;9.958;2023-05-14T03:12:36;9.80;;;8.80;;
13855;SDS011;6998;53.608;9.958;2023-05-14T03:15:03;10.40;;;9.45;;
13855;SDS011;6998;53.608;9.958;2023-05-14T03:17:30;9.48;;;8.65;;
13855;SDS011;6998;53.608;9.958;2023-05-14T03:19:56;9.70;;;8.82;;
13855;SDS011;6998;53.608;9.958;2023-05-14T03:22:24;10.32;;;8.65;;
13855;SDS011;6998;53.608;9.958;2023-05-14T03:24:51;9.13;;;8.23;;
13855;SDS011;6998;53.608;9.958;2023-05-14T03:27:18;10.07;;;8.40;;
13855;SDS011;6998;53.608;9.958;2023-05-14T03:29:45;9.25;;;8.32;;
13855;SDS011;6998;53.608;9.958;2023-05-14T03:32:11;9.77;;;8.25;;
13855;SDS011;6998;53.608;9.958;2023-05-14T03:34:38;9.25;;;8.35;;
13855;SDS011;6998;53.608;9.958;2023-05-14T03:37:05;9.18;;;8.30;;
13855;SDS011;6998;53.608;9.958;2023-05-14T03:39:33;9.43;;;8.55;;
13855;SDS011;6998;53.608;9.958;2023-05-14T03:42:00;9.23;;;8.43;;
13855;SDS011;6998;53.608;9.958;2023-05-14T03:44:26;9.57;;;8.68;;
13855;SDS011;6998;53.608;9.958;2023-05-14T03:46:53;9.38;;;8.45;;
13855;SDS011;6998;53.608;9.958;2023-05-14T03:49:20;9.65;;;8.63;;
13855;SDS011;6998;53.608;9.958;2023-05-14T03:51:46;9.00;;;8.15;;
13855;SDS011;6998;53.608;9.958;2023-05-14T03:54:13;9.15;;;8.35;;
13855;SDS011;6998;53.608;9.958;2023-05-14T03:56:41;11.40;;;8.55;;
13855;SDS011;6998;53.608;9.958;2023-05-14T03:59:08;9.52;;;8.63;;
13855;SDS011;6998;53.608;9.958;2023-05-14T04:01:34;9.73;;;8.70;;
13855;SDS011;6998;53.608;9.958;2023-05-14T04:04:01;9.75;;;8.77;;
13855;SDS011;6998;53.608;9.958;2023-05-14T04:06:28;11.45;;;8.52;;
13855;SDS011;6998;53.608;9.958;2023-05-14T04:08:55;8.73;;;7.88;;
13855;SDS011;6998;53.608;9.958;2023-05-14T04:11:21;9.45;;;8.55;;
13855;SDS011;6998;53.608;9.958;2023-05-14T04:13:49;8.85;;;8.02;;
13855;SDS011;6998;53.608;9.958;2023-05-14T04:16:16;9.48;;;7.97;;
13855;SDS011;6998;53.608;9.958;2023-05-14T04:18:44;9.27;;;8.27;;
13855;SDS011;6998;53.608;9.958;2023-05-14T04:21:11;8.57;;;7.78;;
13855;SDS011;6998;53.608;9.958;2023-05-14T04:23:37;8.57;;;7.75;;
13855;SDS011;6998;53.608;9.958;2023-05-14T04:26:04;8.68;;;7.70;;
13855;SDS011;6998;53.608;9.958;2023-05-14T04:28:31;9.50;;;7.60;;
13855;SDS011;6998;53.608;9.958;2023-05-14T04:30:59;8.23;;;7.40;;
13855;SDS011;6998;53.608;9.958;2023-05-14T04:33:25;9.05;;;7.82;;
13855;SDS011;6998;53.608;9.958;2023-05-14T04:35:52;8.75;;;7.85;;
13855;SDS011;6998;53.608;9.958;2023-05-14T04:38:19;8.68;;;7.68;;
13855;SDS011;6998;53.608;9.958;2023-05-14T04:40:47;9.82;;;8.23;;
13855;SDS011;6998;53.608;9.958;2023-05-14T04:43:13;8.68;;;7.90;;
13855;SDS011;6998;53.608;9.958;2023-05-14T04:45:43;8.60;;;7.80;;
13855;SDS011;6998;53.608;9.958;2023-05-14T04:48:11;7.97;;;7.18;;
13855;SDS011;6998;53.608;9.958;2023-05-14T04:50:38;8.15;;;7.45;;
13855;SDS011;6998;53.608;9.958;2023-05-14T04:53:05;9.23;;;7.43;;
13855;SDS011;6998;53.608;9.958;2023-05-14T04:55:31;8.05;;;7.35;;
13855;SDS011;6998;53.608;9.958;2023-05-14T04:57:58;9.10;;;7.75;;
13855;SDS011;6998;53.608;9.958;2023-05-14T05:00:25;7.35;;;6.65;;
13855;SDS011;6998;53.608;9.958;2023-05-14T05:02:53;7.82;;;7.03;;
13855;SDS011;6998;53.608;9.958;2023-05-14T05:05:21;8.35;;;7.22;;
13855;SDS011;6998;53.608;9.958;2023-05-14T05:07:52;8.68;;;6.43;;
13855;SDS011;6998;53.608;9.958;2023-05-14T05:10:19;7.88;;;7.07;;
13855;SDS011;6998;53.608;9.958;2023-05-14T05:12:45;7.47;;;6.88;;
13855;SDS011;6998;53.608;9.958;2023-05-14T05:15:12;10.85;;;6.82;;
13855;SDS011;6998;53.608;9.958;2023-05-14T05:17:39;8.15;;;7.07;;
13855;SDS011;6998;53.608;9.958;2023-05-14T05:20:06;7.78;;;6.97;;
13855;SDS011;6998;53.608;9.958;2023-05-14T05:22:35;7.53;;;6.63;;
13855;SDS011;6998;53.608;9.958;2023-05-14T05:25:02;7.13;;;6.43;;
13855;SDS011;6998;53.608;9.958;2023-05-14T05:27:30;8.73;;;6.70;;
13855;SDS011;6998;53.608;9.958;2023-05-14T05:29:56;8.13;;;6.68;;
13855;SDS011;6998;53.608;9.958;2023-05-14T05:32:23;7.30;;;6.65;;
13855;SDS011;6998;53.608;9.958;2023-05-14T05:34:50;7.18;;;6.57;;
13855;SDS011;6998;53.608;9.958;2023-05-14T05:37:17;7.18;;;6.38;;
13855;SDS011;6998;53.608;9.958;2023-05-14T05:39:45;6.53;;;5.93;;
13855;SDS011;6998;53.608;9.958;2023-05-14T05:42:12;6.53;;;5.93;;
13855;SDS011;6998;53.608;9.958;2023-05-14T05:44:39;7.70;;;6.55;;
13855;SDS011;6998;53.608;9.958;2023-05-14T05:47:05;6.93;;;6.22;;
13855;SDS011;6998;53.608;9.958;2023-05-14T05:49:32;6.47;;;5.88;;
13855;SDS011;6998;53.608;9.958;2023-05-14T05:52:00;6.53;;;6.03;;
13855;SDS011;6998;53.608;9.958;2023-05-14T05:54:28;6.82;;;6.22;;
13855;SDS011;6998;53.608;9.958;2023-05-14T05:56:57;7.22;;;5.70;;
13855;SDS011;6998;53.608;9.958;2023-05-14T05:59:24;7.32;;;6.30;;
13855;SDS011;6998;53.608;9.958;2023-05-14T06:01:50;6.88;;;6.18;;
13855;SDS011;6998;53.608;9.958;2023-05-14T06:04:17;6.00;;;5.47;;
13855;SDS011;6998;53.608;9.958;2023-05-14T06:06:44;6.50;;;5.90;;
13855;SDS011;6998;53.608;9.958;2023-05-14T06:09:10;6.40;;;5.80;;
13855;SDS011;6998;53.608;9.958;2023-05-14T06:11:37;6.10;;;5.50;;
13855;SDS011;6998;53.608;9.958;2023-05-14T06:14:05;6.88;;;5.50;;
13855;SDS011;6998;53.608;9.958;2023-05-14T06:16:32;6.30;;;5.70;;
13855;SDS011;6998;53.608;9.958;2023-05-14T06:18:58;8.05;;;5.10;;
13855;SDS011;6998;53.608;9.958;2023-05-14T06:21:26;7.53;;;5.30;;
13855;SDS011;6998;53.608;9.958;2023-05-14T06:23:52;9.20;;;5.57;;
13855;SDS011;6998;53.608;9.958;2023-05-14T06:26:19;5.22;;;4.75;;
13855;SDS011;6998;53.608;9.958;2023-05-14T06:28:46;5.95;;;4.78;;
13855;SDS011;6998;53.608;9.958;2023-05-14T06:31:13;5.40;;;4.90;;
13855;SDS011;6998;53.608;9.958;2023-05-14T06:33:40;6.40;;;4.90;;
13855;SDS011;6998;53.608;9.958;2023-05-14T06:36:07;5.82;;;5.32;;
13855;SDS011;6998;53.608;9.958;2023-05-14T06:38:34;6.30;;;4.78;;
13855;SDS011;6998;53.608;9.958;2023-05-14T06:41:01;6.10;;;4.65;;
13855;SDS011;6998;53.608;9.958;2023-05-14T06:43:27;6.90;;;4.82;;
13855;SDS011;6998;53.608;9.958;2023-05-14T06:45:54;5.03;;;4.57;;
13855;SDS011;6998;53.608;9.958;2023-05-14T06:48:22;5.35;;;4.53;;
13855;SDS011;6998;53.608;9.958;2023-05-14T06:50:51;6.72;;;5.15;;
13855;SDS011;6998;53.608;9.958;2023-05-14T06:53:18;6.82;;;4.80;;
13855;SDS011;6998;53.608;9.958;2023-05-14T06:55:45;5.72;;;4.80;;
13855;SDS011;6998;53.608;9.958;2023-05-14T06:58:12;6.35;;;4.70;;
13855;SDS011;6998;53.608;9.958;2023-05-14T07:00:39;5.25;;;4.65;;
13855;SDS011;6998;53.608;9.958;2023-05-14T07:03:06;4.85;;;4.35;;
13855;SDS011;6998;53.608;9.958;2023-05-14T07:05:34;4.90;;;4.40;;
13855;SDS011;6998;53.608;9.958;2023-05-14T07:08:00;4.80;;;4.40;;
13855;SDS011;6998;53.608;9.958;2023-05-14T07:10:27;4.57;;;4.18;;
13855;SDS011;6998;53.608;9.958;2023-05-14T07:12:54;4.20;;;3.80;;
13855;SDS011;6998;53.608;9.958;2023-05-14T07:15:21;4.18;;;3.83;;
13855;SDS011;6998;53.608;9.958;2023-05-14T07:17:48;5.38;;;4.00;;
13855;SDS011;6998;53.608;9.958;2023-05-14T07:20:14;4.63;;;3.67;;
13855;SDS011;6998;53.608;9.958;2023-05-14T07:22:42;3.67;;;3.38;;
13855;SDS011;6998;53.608;9.958;2023-05-14T07:25:09;4.45;;;3.60;;
13855;SDS011;6998;53.608;9.958;2023-05-14T07:27:36;3.78;;;3.47;;
13855;SDS011;6998;53.608;9.958;2023-05-14T07:30:02;4.03;;;3.63;;
13855;SDS011;6998;53.608;9.958;2023-05-14T07:32:29;4.30;;;3.90;;
13855;SDS011;6998;53.608;9.958;2023-05-14T07:34:56;3.80;;;3.40;;
13855;SDS011;6998;53.608;9.958;2023-05-14T07:37:23;4.80;;;3.50;;
13855;SDS011;6998;53.608;9.958;2023-05-14T07:39:52;5.53;;;3.40;;
13855;SDS011;6998;53.608;9.958;2023-05-14T07:42:18;4.68;;;3.60;;
13855;SDS011;6998;53.608;9.958;2023-05-14T07:44:45;4.63;;;3.80;;
13855;SDS011;6998;53.608;9.958;2023-05-14T07:47:12;4.80;;;3.70;;
13855;SDS011;6998;53.608;9.958;2023-05-14T07:49:38;4.53;;;3.72;;
13855;SDS011;6998;53.608;9.958;2023-05-14T07:52:05;5.78;;;3.75;;
13855;SDS011;6998;53.608;9.958;2023-05-14T07:54:32;3.53;;;3.10;;
13855;SDS011;6998;53.608;9.958;2023-05-14T07:57:00;3.55;;;3.25;;
13855;SDS011;6998;53.608;9.958;2023-05-14T07:59:27;4.60;;;3.40;;
13855;SDS011;6998;53.608;9.958;2023-05-14T08:01:54;5.07;;;3.38;;
13855;SDS011;6998;53.608;9.958;2023-05-14T08:04:20;4.15;;;3.40;;
13855;SDS011;6998;53.608;9.958;2023-05-14T08:06:47;8.48;;;3.67;;
13855;SDS011;6998;53.608;9.958;2023-05-14T08:09:14;3.95;;;3.40;;
13855;SDS011;6998;53.608;9.958;2023-05-14T08:11:44;4.82;;;3.25;;
13855;SDS011;6998;53.608;9.958;2023-05-14T08:14:12;4.18;;;3.60;;
13855;SDS011;6998;53.608;9.958;2023-05-14T08:16:38;4.70;;;3.40;;
13855;SDS011;6998;53.608;9.958;2023-05-14T08:19:05;3.88;;;3.55;;
13855;SDS011;6998;53.608;9.958;2023-05-14T08:21:32;4.50;;;3.33;;
13855;SDS011;6998;53.608;9.958;2023-05-14T08:23:59;4.28;;;3.22;;
13855;SDS011;6998;53.608;9.958;2023-05-14T08:26:26;3.95;;;3.22;;
13855;SDS011;6998;53.608;9.958;2023-05-14T08:28:53;5.25;;;3.47;;
13855;SDS011;6998;53.608;9.958;2023-05-14T08:31:23;5.00;;;3.28;;
13855;SDS011;6998;53.608;9.958;2023-05-14T08:33:50;5.20;;;3.05;;
13855;SDS011;6998;53.608;9.958;2023-05-14T08:36:16;3.70;;;3.00;;
13855;SDS011;6998;53.608;9.958;2023-05-14T08:38:43;5.65;;;3.40;;
13855;SDS011;6998;53.608;9.958;2023-05-14T08:41:10;3.55;;;3.10;;
13855;SDS011;6998;53.608;9.958;2023-05-14T08:43:41;4.82;;;3.35;;
13855;SDS011;6998;53.608;9.958;2023-05-14T08:46:12;5.78;;;3.15;;
13855;SDS011;6998;53.608;9.958;2023-05-14T08:48:41;3.65;;;3.08;;
13855;SDS011;6998;53.608;9.958;2023-05-14T08:51:12;3.25;;;2.95;;
13855;SDS011;6998;53.608;9.958;2023-05-14T08:53:39;4.50;;;3.10;;
13855;SDS011;6998;53.608;9.958;2023-05-14T08:56:07;3.30;;;2.97;;
13855;SDS011;6998;53.608;9.958;2023-05-14T08:58:36;3.55;;;2.95;;
13855;SDS011;6998;53.608;9.958;2023-05-14T09:01:03;3.10;;;2.80;;
13855;SDS011;6998;53.608;9.958;2023-05-14T09:03:30;3.83;;;3.03;;
13855;SDS011;6998;53.608;9.958;2023-05-14T09:05:59;4.88;;;2.90;;
13855;SDS011;6998;53.608;9.958;2023-05-14T09:08:27;4.90;;;2.78;;
13855;SDS011;6998;53.608;9.958;2023-05-14T09:10:54;3.22;;;2.92;;
13855;SDS011;6998;53.608;9.958;2023-05-14T09:13:20;3.88;;;2.78;;
13855;SDS011;6998;53.608;9.958;2023-05-14T09:15:47;5.93;;;2.85;;
13855;SDS011;6998;53.608;9.958;2023-05-14T09:18:15;5.93;;;3.10;;
13855;SDS011;6998;53.608;9.958;2023-05-14T09:20:42;4.50;;;2.70;;
13855;SDS011;6998;53.608;9.958;2023-05-14T09:23:10;3.33;;;2.83;;
13855;SDS011;6998;53.608;9.958;2023-05-14T09:25:37;3.95;;;2.85;;
13855;SDS011;6998;53.608;9.958;2023-05-14T09:28:04;4.47;;;2.88;;
13855;SDS011;6998;53.608;9.958;2023-05-14T09:30:35;3.08;;;2.55;;
13855;SDS011;6998;53.608;9.958;2023-05-14T09:33:02;2.67;;;2.45;;
13855;SDS011;6998;53.608;9.958;2023-05-14T09:35:31;4.35;;;2.80;;
13855;SDS011;6998;53.608;9.958;2023-05-14T09:37:58;4.10;;;2.47;;
13855;SDS011;6998;53.608;9.958;2023-05-14T09:40:26;3.00;;;2.40;;
13855;SDS011;6998;53.608;9.958;2023-05-14T09:42:52;4.57;;;2.88;;
13855;SDS011;6998;53.608;9.958;2023-05-14T09:45:20;3.30;;;2.63;;
13855;SDS011;6998;53.608;9.958;2023-05-14T09:47:47;5.65;;;2.88;;
13855;SDS011;6998;53.608;9.958;2023-05-14T09:50:15;5.65;;;2.85;;
13855;SDS011;6998;53.608;9.958;2023-05-14T09:52:42;3.03;;;2.60;;
13855;SDS011;6998;53.608;9.958;2023-05-14T09:55:09;5.72;;;2.70;;
13855;SDS011;6998;53.608;9.958;2023-05-14T09:57:37;3.58;;;2.55;;
13855;SDS011;6998;53.608;9.958;2023-05-14T10:00:04;3.53;;;2.30;;
13855;SDS011;6998;53.608;9.958;2023-05-14T10:02:33;2.60;;;2.40;;
13855;SDS011;6998;53.608;9.958;2023-05-14T10:05:02;2.65;;;2.42;;
13855;SDS011;6998;53.608;9.958;2023-05-14T10:07:32;5.88;;;2.60;;
13855;SDS011;6998;53.608;9.958;2023-05-14T10:10:02;4.32;;;2.58;;
13855;SDS011;6998;53.608;9.958;2023-05-14T10:12:35;2.88;;;2.53;;
13855;SDS011;6998;53.608;9.958;2023-05-14T10:15:07;2.78;;;2.47;;
13855;SDS011;6998;53.608;9.958;2023-05-14T10:17:41;4.30;;;2.35;;
13855;SDS011;6998;53.608;9.958;2023-05-14T10:20:12;2.78;;;2.58;;
13855;SDS011;6998;53.608;9.958;2023-05-14T10:22:41;3.53;;;2.30;;
13855;SDS011;6998;53.608;9.958;2023-05-14T10:25:08;4.28;;;2.70;;
13855;SDS011;6998;53.608;9.958;2023-05-14T10:27:36;3.30;;;2.30;;
13855;SDS011;6998;53.608;9.958;2023-05-14T10:30:10;4.40;;;2.55;;
13855;SDS011;6998;53.608;9.958;2023-05-14T10:32:47;2.60;;;2.40;;
13855;SDS011;6998;53.608;9.958;2023-05-14T10:38:41;5.55;;;2.53;;
13855;SDS011;6998;53.608;9.958;2023-05-14T10:41:16;5.28;;;2.72;;
13855;SDS011;6998;53.608;9.958;2023-05-14T10:43:45;3.78;;;2.55;;
13855;SDS011;6998;53.608;9.958;2023-05-14T10:46:14;4.50;;;2.60;;
13855;SDS011;6998;53.608;9.958;2023-05-14T10:48:41;4.20;;;2.53;;
13855;SDS011;6998;53.608;9.958;2023-05-14T10:51:09;3.17;;;2.88;;
13855;SDS011;6998;53.608;9.958;2023-05-14T10:53:37;3.17;;;2.75;;
13855;SDS011;6998;53.608;9.958;2023-05-14T10:56:05;2.60;;;2.40;;
13855;SDS011;6998;53.608;9.958;2023-05-14T10:58:34;2.97;;;2.72;;
13855;SDS011;6998;53.608;9.958;2023-05-14T11:01:02;3.90;;;2.60;;
13855;SDS011;6998;53.608;9.958;2023-05-14T11:03:37;3.13;;;2.72;;
13855;SDS011;6998;53.608;9.958;2023-05-14T11:06:05;3.83;;;2.67;;
13855;SDS011;6998;53.608;9.958;2023-05-14T11:08:33;3.22;;;2.50;;
13855;SDS011;6998;53.608;9.958;2023-05-14T11:11:00;4.70;;;2.40;;
13855;SDS011;6998;53.608;9.958;2023-05-14T11:13:27;3.40;;;2.50;;
13855;SDS011;6998;53.608;9.958;2023-05-14T11:15:55;2.60;;;2.40;;
13855;SDS011;6998;53.608;9.958;2023-05-14T11:18:25;5.88;;;2.47;;
13855;SDS011;6998;53.608;9.958;2023-05-14T11:20:56;3.47;;;2.53;;
13855;SDS011;6998;53.608;9.958;2023-05-14T11:23:23;5.60;;;2.60;;
13855;SDS011;6998;53.608;9.958;2023-05-14T11:25:50;3.22;;;2.78;;
13855;SDS011;6998;53.608;9.958;2023-05-14T11:28:18;2.63;;;2.40;;
13855;SDS011;6998;53.608;9.958;2023-05-14T11:30:46;2.90;;;2.70;;
13855;SDS011;6998;53.608;9.958;2023-05-14T11:33:13;3.22;;;2.63;;
13855;SDS011;6998;53.608;9.958;2023-05-14T11:35:39;4.65;;;2.72;;
13855;SDS011;6998;53.608;9.958;2023-05-14T11:38:13;2.80;;;2.60;;
13855;SDS011;6998;53.608;9.958;2023-05-14T11:40:40;3.47;;;2.38;;
13855;SDS011;6998;53.608;9.958;2023-05-14T11:43:08;4.57;;;3.00;;
13855;SDS011;6998;53.608;9.958;2023-05-14T11:45:35;3.00;;;2.70;;
13855;SDS011;6998;53.608;9.958;2023-05-14T11:48:01;4.22;;;2.75;;
13855;SDS011;6998;53.608;9.958;2023-05-14T11:50:36;3.67;;;2.60;;
13855;SDS011;6998;53.608;9.958;2023-05-14T11:53:04;5.38;;;2.72;;
13855;SDS011;6998;53.608;9.958;2023-05-14T11:55:33;3.50;;;2.70;;
13855;SDS011;6998;53.608;9.958;2023-05-14T11:58:01;4.47;;;2.60;;
13855;SDS011;6998;53.608;9.958;2023-05-14T12:00:27;3.33;;;2.70;;
13855;SDS011;6998;53.608;9.958;2023-05-14T12:02:55;3.35;;;2.55;;
13855;SDS011;6998;53.608;9.958;2023-05-14T12:05:22;3.28;;;2.60;;
13855;SDS011;6998;53.608;9.958;2023-05-14T12:07:48;3.47;;;2.80;;
13855;SDS011;6998;53.608;9.958;2023-05-14T12:10:15;3.30;;;2.72;;
13855;SDS011;6998;53.608;9.958;2023-05-14T12:12:46;4.70;;;2.35;;
13855;SDS011;6998;53.608;9.958;2023-05-14T12:15:13;3.08;;;2.47;;
13855;SDS011;6998;53.608;9.958;2023-05-14T12:17:41;5.18;;;2.70;;
13855;SDS011;6998;53.608;9.958;2023-05-14T12:20:14;3.67;;;2.72;;
13855;SDS011;6998;53.608;9.958;2023-05-14T12:22:41;4.43;;;2.63;;
13855;SDS011;6998;53.608;9.958;2023-05-14T12:25:09;4.53;;;2.63;;
13855;SDS011;6998;53.608;9.958;2023-05-14T12:27:38;4.30;;;2.70;;
13855;SDS011;6998;53.608;9.958;2023-05-14T12:30:07;3.20;;;2.63;;
13855;SDS011;6998;53.608;9.958;2023-05-14T12:32:34;2.88;;;2.55;;
13855;SDS011;6998;53.608;9.958;2023-05-14T12:35:04;2.38;;;2.13;;
13855;SDS011;6998;53.608;9.958;2023-05-14T12:37:31;4.00;;;2.80;;
13855;SDS011;6998;53.608;9.958;2023-05-14T12:40:00;3.63;;;2.60;;
13855;SDS011;6998;53.608;9.958;2023-05-14T12:42:26;5.13;;;2.70;;
13855;SDS011;6998;53.608;9.958;2023-05-14T12:44:56;3.40;;;2.88;;
13855;SDS011;6998;53.608;9.958;2023-05-14T12:47:29;4.75;;;2.90;;
13855;SDS011;6998;53.608;9.958;2023-05-14T12:49:56;3.92;;;2.92;;
13855;SDS011;6998;53.608;9.958;2023-05-14T12:52:23;3.83;;;2.40;;
13855;SDS011;6998;53.608;9.958;2023-05-14T12:54:49;3.03;;;2.70;;
13855;SDS011;6998;53.608;9.958;2023-05-14T12:57:16;3.70;;;2.50;;
13855;SDS011;6998;53.608;9.958;2023-05-14T12:59:46;3.15;;;2.75;;
13855;SDS011;6998;53.608;9.958;2023-05-14T13:02:13;4.85;;;2.78;;
13855;SDS011;6998;53.608;9.958;2023-05-14T13:04:42;3.13;;;2.60;;
13855;SDS011;6998;53.608;9.958;2023-05-14T13:07:09;3.00;;;2.72;;
13855;SDS011;6998;53.608;9.958;2023-05-14T13:09:36;3.92;;;2.67;;
13855;SDS011;6998;53.608;9.958;2023-05-14T13:12:03;5.80;;;2.63;;
13855;SDS011;6998;53.608;9.958;2023-05-14T13:14:30;3.05;;;2.60;;
13855;SDS011;6998;53.608;9.958;2023-05-14T13:16:57;4.28;;;2.60;;
13855;SDS011;6998;53.608;9.958;2023-05-14T13:19:24;5.32;;;3.20;;
13855;SDS011;6998;53.608;9.958;2023-05-14T13:21:52;3.00;;;2.58;;
13855;SDS011;6998;53.608;9.958;2023-05-14T13:24:19;2.78;;;2.50;;
13855;SDS011;6998;53.608;9.958;2023-05-14T13:26:46;3.72;;;2.70;;
13855;SDS011;6998;53.608;9.958;2023-05-14T13:29:13;3.90;;;2.80;;
13855;SDS011;6998;53.608;9.958;2023-05-14T13:31:40;4.22;;;2.78;;
13855;SDS011;6998;53.608;9.958;2023-05-14T13:34:07;3.88;;;2.58;;
13855;SDS011;6998;53.608;9.958;2023-05-14T13:36:34;4.70;;;2.80;;
13855;SDS011;6998;53.608;9.958;2023-05-14T13:39:04;3.20;;;2.60;;
13855;SDS011;6998;53.608;9.958;2023-05-14T13:41:31;4.05;;;2.90;;
13855;SDS011;6998;53.608;9.958;2023-05-14T13:43:59;4.97;;;2.83;;
13855;SDS011;6998;53.608;9.958;2023-05-14T13:46:26;4.68;;;2.90;;
13855;SDS011;6998;53.608;9.958;2023-05-14T13:48:53;4.45;;;2.80;;
13855;SDS011;6998;53.608;9.958;2023-05-14T13:51:20;3.00;;;2.70;;
13855;SDS011;6998;53.608;9.958;2023-05-14T13:53:47;4.55;;;3.03;;
13855;SDS011;6998;53.608;9.958;2023-05-14T13:56:15;4.28;;;3.00;;
13855;SDS011;6998;53.608;9.958;2023-05-14T13:58:42;4.88;;;2.80;;
13855;SDS011;6998;53.608;9.958;2023-05-14T14:01:09;3.50;;;2.53;;
13855;SDS011;6998;53.608;9.958;2023-05-14T14:03:36;4.43;;;2.70;;
13855;SDS011;6998;53.608;9.958;2023-05-14T14:06:02;3.58;;;2.60;;
13855;SDS011;6998;53.608;9.958;2023-05-14T14:08:29;5.22;;;2.83;;
13855;SDS011;6998;53.608;9.958;2023-05-14T14:10:56;2.92;;;2.35;;
13855;SDS011;6998;53.608;9.958;2023-05-14T14:13:24;3.15;;;2.35;;
13855;SDS011;6998;53.608;9.958;2023-05-14T14:15:51;2.83;;;2.58;;
13855;SDS011;6998;53.608;9.958;2023-05-14T14:18:18;2.50;;;2.30;;
13855;SDS011;6998;53.608;9.958;2023-05-14T14:20:45;3.75;;;2.75;;
13855;SDS011;6998;53.608;9.958;2023-05-14T14:23:13;2.72;;;2.28;;
13855;SDS011;6998;53.608;9.958;2023-05-14T14:25:40;7.03;;;3.00;;
13855;SDS011;6998;53.608;9.958;2023-05-14T14:28:07;3.42;;;2.67;;
13855;SDS011;6998;53.608;9.958;2023-05-14T14:30:35;3.28;;;2.70;;
13855;SDS011;6998;53.608;9.958;2023-05-14T14:33:02;2.75;;;2.55;;
13855;SDS011;6998;53.608;9.958;2023-05-14T14:35:29;5.55;;;2.85;;
13855;SDS011;6998;53.608;9.958;2023-05-14T14:37:57;3.42;;;2.70;;
13855;SDS011;6998;53.608;9.958;2023-05-14T14:40:24;3.58;;;2.35;;
13855;SDS011;6998;53.608;9.958;2023-05-14T14:42:50;3.13;;;2.80;;
13855;SDS011;6998;53.608;9.958;2023-05-14T14:45:17;3.80;;;3.00;;
13855;SDS011;6998;53.608;9.958;2023-05-14T14:47:48;3.92;;;2.92;;
13855;SDS011;6998;53.608;9.958;2023-05-14T14:50:15;3.08;;;2.35;;
13855;SDS011;6998;53.608;9.958;2023-05-14T14:52:41;4.25;;;2.58;;
13855;SDS011;6998;53.608;9.958;2023-05-14T14:55:09;6.03;;;3.30;;
13855;SDS011;6998;53.608;9.958;2023-05-14T14:57:36;3.75;;;2.95;;
13855;SDS011;6998;53.608;9.958;2023-05-14T15:00:03;3.60;;;3.17;;